createdAt,value
2019-05-15T00:00:41.982Z,3.40
2019-05-15T00:03:10.807Z,3.40
2019-05-15T00:05:39.285Z,3.30
2019-05-15T00:08:09.206Z,3.30
2019-05-15T00:10:38.909Z,3.30
2019-05-15T00:13:06.225Z,3.30
2019-05-15T00:15:34.054Z,3.30
2019-05-15T00:18:02.389Z,3.30
2019-05-15T00:20:30.141Z,3.30
2019-05-15T00:22:58.857Z,3.20
2019-05-15T00:25:28.311Z,3.20
2019-05-15T00:27:58.165Z,3.30
2019-05-15T00:30:25.537Z,3.10
2019-05-15T00:32:53.244Z,3.10
2019-05-15T00:35:20.851Z,2.80
2019-05-15T00:37:49.299Z,3.10
2019-05-15T00:40:18.311Z,3.00
2019-05-15T00:42:46.146Z,2.90
2019-05-15T00:45:15.035Z,2.90
2019-05-15T00:47:42.699Z,2.90
2019-05-15T00:50:10.545Z,2.90
2019-05-15T00:52:39.238Z,3.20
2019-05-15T00:55:08.666Z,2.90
2019-05-15T00:57:38.903Z,2.90
2019-05-15T01:00:08.233Z,2.90
2019-05-15T01:02:36.008Z,2.90
2019-05-15T01:05:03.926Z,3.00
2019-05-15T01:07:31.407Z,2.80
2019-05-15T01:09:59.041Z,2.80
2019-05-15T01:12:29.021Z,2.80
2019-05-15T01:14:58.237Z,2.70
2019-05-15T01:17:26.145Z,2.70
2019-05-15T01:19:53.861Z,2.60
2019-05-15T01:22:21.523Z,2.50
2019-05-15T01:24:49.098Z,2.60
2019-05-15T01:27:18.414Z,2.60
2019-05-15T01:29:46.214Z,2.60
2019-05-15T01:32:14.339Z,2.60
2019-05-15T01:34:41.879Z,2.70
2019-05-15T01:37:09.585Z,2.70
2019-05-15T01:39:38.484Z,2.60
2019-05-15T01:42:08.355Z,2.60
2019-05-15T01:44:36.107Z,2.60
2019-05-15T01:47:03.721Z,2.60
2019-05-15T01:49:31.536Z,2.50
2019-05-15T01:51:59.102Z,2.40
2019-05-15T01:54:28.677Z,2.40
2019-05-15T01:56:58.582Z,2.40
2019-05-15T01:59:28.391Z,2.40
2019-05-15T02:01:55.835Z,2.30
2019-05-15T02:04:23.374Z,2.30
2019-05-15T02:06:50.980Z,2.20
2019-05-15T02:09:18.879Z,2.00
2019-05-15T02:11:48.757Z,1.80
2019-05-15T02:14:15.993Z,1.80
2019-05-15T02:16:43.857Z,1.60
2019-05-15T02:19:11.794Z,1.60
2019-05-15T02:21:39.689Z,1.50
2019-05-15T02:24:07.963Z,1.50
2019-05-15T02:26:35.631Z,1.40
2019-05-15T02:29:04.093Z,1.50
2019-05-15T02:31:31.728Z,1.40
2019-05-15T02:33:59.375Z,1.30
2019-05-15T02:36:29.313Z,1.30
2019-05-15T02:38:59.733Z,1.10
2019-05-15T02:41:29.581Z,1.10
2019-05-15T02:43:59.131Z,1.10
2019-05-15T02:46:29.829Z,0.90
2019-05-15T02:48:59.033Z,0.90
2019-05-15T02:51:25.743Z,0.80
2019-05-15T02:53:53.499Z,0.70
2019-05-15T02:56:21.027Z,0.70
2019-05-15T02:58:49.234Z,0.70
2019-05-15T03:01:18.991Z,0.60
2019-05-15T03:03:49.431Z,0.60
2019-05-15T03:06:19.009Z,0.70
2019-05-15T03:08:45.643Z,0.80
2019-05-15T03:11:13.249Z,0.80
2019-05-15T03:13:40.795Z,0.80
2019-05-15T03:16:10.172Z,0.80
2019-05-15T03:18:39.768Z,0.80
2019-05-15T03:21:09.747Z,0.70
2019-05-15T03:23:40.459Z,0.80
2019-05-15T03:26:08.913Z,0.80
2019-05-15T03:28:39.254Z,0.70
2019-05-15T03:31:26.362Z,0.70
2019-05-15T03:33:38.783Z,0.70
2019-05-15T03:36:05.209Z,0.70
2019-05-15T03:38:33.082Z,0.90
2019-05-15T03:41:00.773Z,0.90
2019-05-15T03:43:29.219Z,1.00
2019-05-15T03:46:01.594Z,1.00
2019-05-15T03:48:29.634Z,1.00
2019-05-15T03:50:59.707Z,1.10
2019-05-15T03:53:29.567Z,1.30
2019-05-15T03:55:58.870Z,1.40
2019-05-15T03:58:28.812Z,1.50
2019-05-15T04:01:00.186Z,1.50
2019-05-15T04:03:29.846Z,1.60
2019-05-15T04:06:00.239Z,1.50
2019-05-15T04:08:29.899Z,1.50
2019-05-15T04:10:59.605Z,1.50
2019-05-15T04:13:30.038Z,1.50
2019-05-15T04:15:59.365Z,1.40
2019-05-15T04:18:29.097Z,1.30
2019-05-15T04:21:00.195Z,1.40
2019-05-15T04:23:29.783Z,1.40
2019-05-15T04:25:58.833Z,1.40
2019-05-15T04:28:29.566Z,1.40
2019-05-15T04:30:59.605Z,1.40
2019-05-15T04:33:29.409Z,1.50
2019-05-15T04:35:58.966Z,1.50
2019-05-15T04:38:29.325Z,1.60
2019-05-15T04:40:58.877Z,1.60
2019-05-15T04:43:29.186Z,1.70
2019-05-15T04:45:55.294Z,1.80
2019-05-15T04:48:23.378Z,1.90
2019-05-15T04:50:51.227Z,2.10
2019-05-15T04:53:19.454Z,2.30
2019-05-15T04:55:49.076Z,2.40
2019-05-15T04:58:20.759Z,2.60
2019-05-15T05:00:49.994Z,2.70
2019-05-15T05:03:19.794Z,2.80
2019-05-15T05:05:49.882Z,2.80
2019-05-15T05:08:20.055Z,2.80
2019-05-15T05:10:48.805Z,2.90
2019-05-15T05:13:19.394Z,2.90
2019-05-15T05:15:49.562Z,3.10
2019-05-15T05:18:18.775Z,3.10
2019-05-15T05:20:45.565Z,3.10
2019-05-15T05:23:13.202Z,3.30
2019-05-15T05:25:40.904Z,3.40
2019-05-15T05:28:08.860Z,3.40
2019-05-15T05:30:38.556Z,3.40
2019-05-15T05:33:08.518Z,3.50
2019-05-15T05:35:38.695Z,3.70
2019-05-15T05:38:07.883Z,3.60
2019-05-15T05:40:38.324Z,3.70
2019-05-15T05:43:05.309Z,3.80
2019-05-15T05:45:33.828Z,3.80
2019-05-15T05:48:01.495Z,4.00
2019-05-15T05:50:38.534Z,4.10
2019-05-15T05:53:08.666Z,4.10
2019-05-15T05:55:38.318Z,4.50
2019-05-15T05:58:08.019Z,4.50
2019-05-15T06:00:40.245Z,4.40
2019-05-15T06:03:08.918Z,4.20
2019-05-15T06:05:38.892Z,4.30
2019-05-15T06:08:08.028Z,4.20
2019-05-15T06:10:38.326Z,4.30
2019-05-15T06:13:08.523Z,4.40
2019-05-15T06:15:37.736Z,4.50
2019-05-15T06:18:05.449Z,4.50
2019-05-15T06:20:34.537Z,4.60
2019-05-15T06:23:02.471Z,4.60
2019-05-15T06:25:30.925Z,4.70
2019-05-15T06:27:59.354Z,4.90
2019-05-15T06:30:30.902Z,5.00
2019-05-15T06:33:08.224Z,4.90
2019-05-15T06:35:31.366Z,5.00
2019-05-15T06:37:59.126Z,5.00
2019-05-15T06:40:28.933Z,5.10
2019-05-15T06:42:59.137Z,5.20
2019-05-15T06:45:28.423Z,5.40
2019-05-15T06:47:57.817Z,5.60
2019-05-15T06:50:33.138Z,5.70
2019-05-15T06:53:01.371Z,5.60
2019-05-15T06:55:29.395Z,5.50
2019-05-15T06:57:58.454Z,5.40
2019-05-15T07:00:28.380Z,5.50
2019-05-15T07:02:58.284Z,5.50
2019-05-15T07:05:25.792Z,5.60
2019-05-15T07:07:53.854Z,5.50
2019-05-15T07:10:22.020Z,5.60
2019-05-15T07:12:51.550Z,5.70
2019-05-15T07:15:19.782Z,5.80
2019-05-15T07:17:48.398Z,5.90
2019-05-15T07:20:18.570Z,6.00
2019-05-15T07:22:48.934Z,5.90
2019-05-15T07:25:18.711Z,6.00
2019-05-15T07:27:47.845Z,6.10
2019-05-15T07:30:18.557Z,6.30
2019-05-15T07:32:45.520Z,6.40
2019-05-15T07:35:13.729Z,6.50
2019-05-15T07:37:41.535Z,6.60
2019-05-15T07:40:10.593Z,6.70
2019-05-15T07:42:39.040Z,6.70
2019-05-15T07:45:08.239Z,6.80
2019-05-15T07:47:38.351Z,6.70
2019-05-15T07:50:08.724Z,6.80
2019-05-15T07:52:39.267Z,6.90
2019-05-15T07:55:08.765Z,7.00
2019-05-15T07:57:39.288Z,7.00
2019-05-15T08:00:08.558Z,7.00
2019-05-15T08:02:37.977Z,6.90
2019-05-15T08:05:08.392Z,6.90
2019-05-15T08:07:38.599Z,7.00
2019-05-15T08:10:08.697Z,7.20
2019-05-15T08:12:38.927Z,7.20
2019-05-15T08:15:09.282Z,7.00
2019-05-15T08:17:58.002Z,7.00
2019-05-15T08:20:09.155Z,7.10
2019-05-15T08:22:38.279Z,7.00
2019-05-15T08:25:11.334Z,7.00
2019-05-15T08:27:38.220Z,6.90
2019-05-15T08:30:08.923Z,6.90
2019-05-15T08:32:38.705Z,6.90
2019-05-15T08:35:08.067Z,6.80
2019-05-15T08:37:38.509Z,6.90
2019-05-15T08:40:08.632Z,7.00
2019-05-15T08:42:42.051Z,7.10
2019-05-15T08:45:09.757Z,7.00
2019-05-15T08:47:38.867Z,7.10
2019-05-15T08:50:08.867Z,7.00
2019-05-15T08:52:39.337Z,7.00
2019-05-15T08:55:08.686Z,6.90
2019-05-15T08:57:38.555Z,6.80
2019-05-15T09:00:09.252Z,6.90
2019-05-15T09:02:38.289Z,6.90
2019-05-15T09:05:08.563Z,7.00
2019-05-15T09:07:38.368Z,7.00
2019-05-15T09:10:09.087Z,7.00
2019-05-15T09:12:38.841Z,6.90
2019-05-15T09:15:09.119Z,6.90
2019-05-15T09:17:39.566Z,6.90
2019-05-15T09:20:08.108Z,6.90
2019-05-15T09:22:38.265Z,7.00
2019-05-15T09:25:08.756Z,7.10
2019-05-15T09:27:38.098Z,7.10
2019-05-15T09:30:08.533Z,7.10
2019-05-15T09:32:35.588Z,6.90
2019-05-15T09:35:04.652Z,6.90
2019-05-15T09:37:33.768Z,6.80
2019-05-15T09:40:01.861Z,6.90
2019-05-15T09:42:29.510Z,6.80
2019-05-15T09:44:58.197Z,6.80
2019-05-15T09:47:26.148Z,6.70
2019-05-15T09:49:53.813Z,6.80
2019-05-15T09:52:23.145Z,6.70
2019-05-15T09:54:50.940Z,6.70
2019-05-15T09:57:18.939Z,6.50
2019-05-15T09:59:48.786Z,6.40
2019-05-15T10:02:18.707Z,6.50
2019-05-15T10:04:48.202Z,6.40
2019-05-15T10:07:15.289Z,6.40
2019-05-15T10:09:43.533Z,6.50
2019-05-15T10:12:12.224Z,6.40
2019-05-15T10:14:39.938Z,6.50
2019-05-15T10:17:09.203Z,6.60
2019-05-15T10:19:37.002Z,6.70
2019-05-15T10:22:04.862Z,6.60
2019-05-15T10:24:32.922Z,6.70
2019-05-15T10:27:00.702Z,6.80
2019-05-15T10:29:28.381Z,6.80
2019-05-15T10:31:56.468Z,6.90
2019-05-15T10:34:24.431Z,7.10
2019-05-15T10:36:52.866Z,7.10
2019-05-15T10:39:21.255Z,7.30
2019-05-15T10:41:49.249Z,7.40
2019-05-15T10:44:18.187Z,7.70
2019-05-15T10:46:48.282Z,7.60
2019-05-15T10:49:18.683Z,7.60
2019-05-15T10:51:46.048Z,7.50
2019-05-15T10:54:13.779Z,7.30
2019-05-15T10:56:41.737Z,7.50
2019-05-15T10:59:09.443Z,7.70
2019-05-15T11:01:38.600Z,7.80
2019-05-15T11:04:09.085Z,8.10
2019-05-15T11:06:38.356Z,8.10
2019-05-15T11:09:08.412Z,8.00
2019-05-15T11:11:36.048Z,8.00
2019-05-15T11:14:03.637Z,7.70
2019-05-15T11:16:31.217Z,7.70
2019-05-15T11:18:58.974Z,7.90
2019-05-15T11:21:26.788Z,8.00
2019-05-15T11:23:54.641Z,8.10
2019-05-15T11:26:22.473Z,8.10
2019-05-15T11:28:50.276Z,8.20
2019-05-15T11:31:18.566Z,8.20
2019-05-15T11:33:49.087Z,8.30
2019-05-15T11:36:18.353Z,8.40
2019-05-15T11:38:45.361Z,8.40
2019-05-15T11:41:13.270Z,8.30
2019-05-15T11:43:40.900Z,8.40
2019-05-15T11:46:09.995Z,8.50
2019-05-15T11:48:39.234Z,8.50
2019-05-15T11:51:09.581Z,8.40
2019-05-15T11:53:39.768Z,8.60
2019-05-15T11:56:09.493Z,8.60
2019-05-15T11:58:38.999Z,8.70
2019-05-15T12:01:08.638Z,8.60
2019-05-15T12:03:38.726Z,8.80
2019-05-15T12:06:15.815Z,8.70
2019-05-15T12:08:38.476Z,8.80
2019-05-15T12:11:05.813Z,8.80
2019-05-15T12:13:33.655Z,8.80
2019-05-15T12:16:01.920Z,8.80
2019-05-15T12:18:29.526Z,8.80
2019-05-15T12:20:59.540Z,8.90
2019-05-15T12:23:29.114Z,8.80
2019-05-15T12:25:59.827Z,8.80
2019-05-15T12:28:29.579Z,8.80
2019-05-15T12:30:59.850Z,8.90
2019-05-15T12:33:29.004Z,9.00
2019-05-15T12:35:57.178Z,9.00
2019-05-15T12:38:25.389Z,9.00
2019-05-15T13:00:51.254Z,9.50
2019-05-15T13:03:19.238Z,9.60
2019-05-15T13:05:48.550Z,9.60
2019-05-15T13:08:19.309Z,9.50
2019-05-15T13:10:45.922Z,9.30
2019-05-15T13:13:13.496Z,9.40
2019-05-15T13:15:41.640Z,9.20
2019-05-15T13:18:13.926Z,9.00
2019-05-15T13:20:39.012Z,9.00
2019-05-15T13:23:07.007Z,9.00
2019-05-15T13:25:34.696Z,9.00
2019-05-15T13:28:02.541Z,9.20
2019-05-15T13:30:30.666Z,9.40
2019-05-15T13:32:58.738Z,9.30
2019-05-15T13:35:28.507Z,9.10
2019-05-15T13:37:58.481Z,9.20
2019-05-15T13:40:36.936Z,9.10
2019-05-15T13:42:56.124Z,8.90
2019-05-15T13:45:23.800Z,8.80
2019-05-15T13:47:51.427Z,8.60
2019-05-15T13:50:19.568Z,8.50
2019-05-15T13:52:48.212Z,8.40
2019-05-15T13:55:16.245Z,8.30
2019-05-15T13:57:44.435Z,8.30
2019-05-15T14:00:12.894Z,8.20
2019-05-15T14:02:40.608Z,8.10
2019-05-15T14:05:09.763Z,7.90
2019-05-15T14:07:48.826Z,7.80
2019-05-15T14:10:09.409Z,7.70
2019-05-15T14:12:38.362Z,7.70
2019-05-15T14:15:08.814Z,7.80
2019-05-15T14:17:37.704Z,7.70
2019-05-15T14:20:09.167Z,7.70
2019-05-15T14:22:38.921Z,7.60
2019-05-15T14:25:08.767Z,7.70
2019-05-15T14:27:39.355Z,7.90
2019-05-15T14:30:09.022Z,7.90
2019-05-15T14:32:39.109Z,7.90
2019-05-15T14:35:09.106Z,7.90
2019-05-15T14:37:37.622Z,8.00
2019-05-15T14:40:08.467Z,8.00
2019-05-15T14:42:35.598Z,8.00
2019-05-15T14:45:04.594Z,8.00
2019-05-15T14:47:32.159Z,8.10
2019-05-15T14:49:59.768Z,8.10
2019-05-15T14:52:28.489Z,8.00
2019-05-15T14:54:58.662Z,8.00
2019-05-15T14:57:25.626Z,8.00
2019-05-15T14:59:53.197Z,7.90
2019-05-15T15:02:21.313Z,7.80
2019-05-15T15:04:49.193Z,7.80
2019-05-15T15:07:18.870Z,7.80
2019-05-15T15:09:48.016Z,7.70
2019-05-15T15:12:15.680Z,7.80
2019-05-15T15:14:44.356Z,7.90
2019-05-15T15:17:12.823Z,8.00
2019-05-15T15:19:40.858Z,8.10
2019-05-15T15:22:08.810Z,8.10
2019-05-15T15:24:38.819Z,8.30
2019-05-15T15:27:08.298Z,8.20
2019-05-15T15:29:38.718Z,8.30
2019-05-15T15:32:06.078Z,8.40
2019-05-15T15:34:33.963Z,8.70
2019-05-15T15:37:02.348Z,8.70
2019-05-15T15:39:29.991Z,8.60
2019-05-15T15:41:57.922Z,8.60
2019-05-15T15:44:28.180Z,8.60
2019-05-15T15:46:56.075Z,8.60
2019-05-15T15:49:27.789Z,8.60
2019-05-15T15:51:58.024Z,8.70
2019-05-15T15:54:25.395Z,8.70
2019-05-15T15:56:53.046Z,8.80
2019-05-15T15:59:20.981Z,8.70
2019-05-15T16:01:49.601Z,8.70
2019-05-15T16:04:18.786Z,8.80
2019-05-15T16:06:48.326Z,8.80
2019-05-15T16:09:18.786Z,8.80
2019-05-15T16:11:49.122Z,8.80
2019-05-15T16:14:18.040Z,8.80
2019-05-15T16:16:48.539Z,8.70
2019-05-15T16:19:18.216Z,8.70
2019-05-15T16:21:49.032Z,8.60
2019-05-15T16:24:18.725Z,8.70
2019-05-15T16:26:49.672Z,8.70
2019-05-15T16:29:18.330Z,8.60
2019-05-15T16:31:49.053Z,8.60
2019-05-15T16:34:18.681Z,8.60
2019-05-15T16:36:45.898Z,8.50
2019-05-15T16:39:13.542Z,8.40
2019-05-15T16:41:41.279Z,8.40
2019-05-15T16:44:09.186Z,8.30
2019-05-15T16:46:39.136Z,8.30
2019-05-15T16:49:07.025Z,8.10
2019-05-15T16:51:38.283Z,7.90
2019-05-15T16:54:05.742Z,7.80
2019-05-15T16:56:36.455Z,7.80
2019-05-15T16:59:03.202Z,7.70
2019-05-15T17:01:31.185Z,7.60
2019-05-15T17:03:59.540Z,7.60
2019-05-15T17:06:28.200Z,7.50
2019-05-15T17:08:57.930Z,7.40
2019-05-15T17:11:25.733Z,7.30
2019-05-15T17:13:53.702Z,7.20
2019-05-15T17:16:21.369Z,7.20
2019-05-15T17:18:49.097Z,7.20
2019-05-15T17:21:18.972Z,7.10
2019-05-15T17:23:48.782Z,7.00
2019-05-15T17:26:16.211Z,7.00
2019-05-15T17:28:43.813Z,7.00
2019-05-15T17:31:11.459Z,7.00
2019-05-15T17:33:39.353Z,7.00
2019-05-15T17:36:07.161Z,6.90
2019-05-15T17:38:35.087Z,6.80
2019-05-15T17:41:03.871Z,6.80
2019-05-15T17:43:31.425Z,6.70
2019-05-15T17:45:59.046Z,6.60
2019-05-15T17:48:28.921Z,6.60
2019-05-15T17:50:59.010Z,6.50
2019-05-15T17:53:28.842Z,6.30
2019-05-15T17:55:58.443Z,6.10
2019-05-15T17:58:26.093Z,6.10
2019-05-15T18:00:54.668Z,6.10
2019-05-15T18:03:22.996Z,6.10
2019-05-15T18:05:51.430Z,6.20
2019-05-15T18:08:21.009Z,6.20
2019-05-15T18:10:48.961Z,6.10
2019-05-15T18:13:17.058Z,6.10
2019-05-15T18:15:46.020Z,6.10
2019-05-15T18:18:20.105Z,6.10
2019-05-15T18:20:48.652Z,6.00
2019-05-15T18:23:18.741Z,6.00
2019-05-15T18:25:45.945Z,6.00
2019-05-15T18:28:15.263Z,6.00
2019-05-15T18:30:43.539Z,6.00
2019-05-15T18:33:11.160Z,6.00
2019-05-15T18:35:38.803Z,6.00
2019-05-15T18:38:08.517Z,6.00
2019-05-15T18:40:38.427Z,6.00
2019-05-15T18:43:10.125Z,6.00
2019-05-15T18:45:38.333Z,5.90
2019-05-15T18:48:06.169Z,5.90
2019-05-15T18:50:33.755Z,5.90
2019-05-15T18:53:01.369Z,5.90
2019-05-15T18:55:29.224Z,5.90
2019-05-15T18:57:58.601Z,5.80
2019-05-15T19:00:29.266Z,5.80
2019-05-15T19:02:59.544Z,5.80
2019-05-15T19:05:28.136Z,5.80
2019-05-15T19:07:57.993Z,5.80
2019-05-15T19:10:25.420Z,5.80
2019-05-15T19:12:57.899Z,5.80
2019-05-15T19:15:25.553Z,5.80
2019-05-15T19:17:53.515Z,5.90
2019-05-15T19:20:23.629Z,5.80
2019-05-15T19:22:51.546Z,5.80
2019-05-15T19:25:19.541Z,5.90
2019-05-15T19:27:51.437Z,5.90
2019-05-15T19:30:20.588Z,5.90
2019-05-15T19:32:50.389Z,5.80
2019-05-15T19:35:18.607Z,5.90
2019-05-15T19:37:48.935Z,5.90
2019-05-15T19:40:18.770Z,5.80
2019-05-15T19:42:48.647Z,5.80
2019-05-15T19:45:15.930Z,5.80
2019-05-15T19:47:43.892Z,5.80
2019-05-15T19:50:11.997Z,5.80
2019-05-15T19:52:39.965Z,5.90
2019-05-15T19:55:08.858Z,5.80
2019-05-15T19:57:40.254Z,5.90
2019-05-15T20:00:08.719Z,5.80
2019-05-15T20:02:39.175Z,5.80
2019-05-15T20:05:08.872Z,5.70
2019-05-15T20:07:38.411Z,5.70
2019-05-15T20:10:08.646Z,5.70
2019-05-15T20:12:39.375Z,5.70
2019-05-15T20:15:09.176Z,5.70
2019-05-15T20:17:38.613Z,5.70
2019-05-15T20:20:08.785Z,5.80
2019-05-15T20:22:39.646Z,5.00
2019-05-15T20:25:08.278Z,5.60
2019-05-15T20:27:39.179Z,5.60
2019-05-15T20:30:08.620Z,5.60
2019-05-15T20:32:38.729Z,5.60
2019-05-15T20:35:08.559Z,5.60
2019-05-15T20:37:39.045Z,5.60
2019-05-15T20:40:09.048Z,5.60
2019-05-15T20:42:38.300Z,5.60
2019-05-15T20:45:11.238Z,5.60
2019-05-15T20:47:38.879Z,5.50
2019-05-15T20:50:08.451Z,5.60
2019-05-15T20:52:39.071Z,5.40
2019-05-15T20:55:08.010Z,5.50
2019-05-15T20:57:38.452Z,5.50
2019-05-15T21:00:08.015Z,5.50
2019-05-15T21:02:38.065Z,5.60
2019-05-15T21:05:08.829Z,5.60
2019-05-15T21:07:40.088Z,5.70
2019-05-15T21:10:08.488Z,5.70
2019-05-15T21:12:36.620Z,5.70
2019-05-15T21:15:05.393Z,5.70
2019-05-15T21:17:33.124Z,5.80
2019-05-15T21:20:02.576Z,5.80
2019-05-15T21:22:30.436Z,5.80
2019-05-15T21:24:58.154Z,5.80
2019-05-15T21:27:31.894Z,5.80
2019-05-15T21:29:58.654Z,5.80
2019-05-15T21:32:28.502Z,5.80
2019-05-15T21:34:58.288Z,5.80
2019-05-15T21:37:27.547Z,5.70
2019-05-15T21:39:55.661Z,5.70
2019-05-15T21:42:23.335Z,5.80
2019-05-15T21:44:51.021Z,5.80
2019-05-15T21:47:19.370Z,5.80
2019-05-15T21:49:48.191Z,5.80
2019-05-15T21:52:18.543Z,5.80
2019-05-15T21:54:47.475Z,5.90
2019-05-15T21:57:32.250Z,5.90
2019-05-15T21:59:45.507Z,5.80
2019-05-15T22:02:13.387Z,5.80
2019-05-15T22:04:51.283Z,5.90
2019-05-15T22:07:10.981Z,5.90
2019-05-15T22:09:38.794Z,5.90
2019-05-15T22:12:07.104Z,5.90
2019-05-15T22:14:37.864Z,5.80
2019-05-15T22:17:05.244Z,5.90
2019-05-15T22:19:33.411Z,5.80
2019-05-15T22:22:01.752Z,5.70
2019-05-15T22:24:30.665Z,5.70
2019-05-15T22:26:58.773Z,5.70
2019-05-15T22:29:28.778Z,5.70
2019-05-15T22:31:56.119Z,5.70
2019-05-15T22:34:23.710Z,5.70
2019-05-15T22:36:51.720Z,5.70
2019-05-15T22:39:21.414Z,5.70
2019-05-15T22:41:49.041Z,5.60
2019-05-15T22:44:19.114Z,5.60
2019-05-15T22:46:48.764Z,5.50
2019-05-15T22:49:18.308Z,5.60
2019-05-15T22:51:48.451Z,5.60
2019-05-15T22:54:17.203Z,5.60
2019-05-15T22:56:45.136Z,5.60
2019-05-15T22:59:13.067Z,5.60
2019-05-15T23:01:41.371Z,5.70
2019-05-15T23:04:09.288Z,5.70
2019-05-15T23:06:38.810Z,5.80
2019-05-15T23:09:07.030Z,5.80
2019-05-15T23:11:34.885Z,5.80
2019-05-15T23:14:02.586Z,5.80
2019-05-15T23:16:30.222Z,5.80
2019-05-15T23:18:59.975Z,5.80
2019-05-15T23:21:28.838Z,5.80
2019-05-15T23:23:56.483Z,5.80
2019-05-15T23:26:24.408Z,5.80
2019-05-15T23:28:52.308Z,5.80
2019-05-15T23:31:20.334Z,5.90
2019-05-15T23:33:48.259Z,5.80
2019-05-15T23:36:18.091Z,5.80
2019-05-15T23:38:47.976Z,5.80
2019-05-15T23:41:15.529Z,5.80
2019-05-15T23:43:43.229Z,5.80
2019-05-15T23:46:11.668Z,5.80
2019-05-15T23:48:39.296Z,5.80
2019-05-15T23:51:08.506Z,5.70
2019-05-15T23:53:37.035Z,5.70
2019-05-15T23:56:04.970Z,5.70
2019-05-15T23:58:33.026Z,5.70
